sensor_id;sensor_type;location;lat;lon;timestamp;P1;durP1;ratioP1;P2;durP2;ratioP2
59659;SDS011;45534;52.690;6.268;2022-07-29T00:02:12;2.78;;;1.77;;
59659;SDS011;45534;52.690;6.268;2022-07-29T00:04:38;3.08;;;1.60;;
59659;SDS011;45534;52.690;6.268;2022-07-29T00:07:04;1.60;;;1.25;;
59659;SDS011;45534;52.690;6.268;2022-07-29T00:09:30;4.25;;;1.70;;
59659;SDS011;45534;52.690;6.268;2022-07-29T00:11:59;9.35;;;1.85;;
59659;SDS011;45534;52.690;6.268;2022-07-29T00:14:25;4.10;;;2.00;;
59659;SDS011;45534;52.690;6.268;2022-07-29T00:16:51;2.55;;;2.35;;
59659;SDS011;45534;52.690;6.268;2022-07-29T00:19:17;1.90;;;1.77;;
59659;SDS011;45534;52.690;6.268;2022-07-29T00:21:43;2.08;;;1.98;;
59659;SDS011;45534;52.690;6.268;2022-07-29T00:24:09;1.38;;;1.35;;
59659;SDS011;45534;52.690;6.268;2022-07-29T00:26:35;3.13;;;2.78;;
59659;SDS011;45534;52.690;6.268;2022-07-29T00:29:01;1.40;;;1.30;;
59659;SDS011;45534;52.690;6.268;2022-07-29T00:31:28;1.75;;;1.05;;
59659;SDS011;45534;52.690;6.268;2022-07-29T00:33:54;1.90;;;1.80;;
59659;SDS011;45534;52.690;6.268;2022-07-29T00:36:19;5.75;;;2.92;;
59659;SDS011;45534;52.690;6.268;2022-07-29T00:38:49;2.05;;;1.90;;
59659;SDS011;45534;52.690;6.268;2022-07-29T00:41:15;1.98;;;1.65;;
59659;SDS011;45534;52.690;6.268;2022-07-29T00:43:42;1.50;;;1.40;;
59659;SDS011;45534;52.690;6.268;2022-07-29T00:46:08;4.57;;;1.42;;
59659;SDS011;45534;52.690;6.268;2022-07-29T00:48:35;1.38;;;1.27;;
59659;SDS011;45534;52.690;6.268;2022-07-29T00:51:01;1.48;;;1.42;;
59659;SDS011;45534;52.690;6.268;2022-07-29T00:53:31;2.40;;;2.00;;
59659;SDS011;45534;52.690;6.268;2022-07-29T00:55:57;1.65;;;1.55;;
59659;SDS011;45534;52.690;6.268;2022-07-29T00:58:24;2.50;;;1.98;;
59659;SDS011;45534;52.690;6.268;2022-07-29T01:00:51;3.63;;;2.35;;
59659;SDS011;45534;52.690;6.268;2022-07-29T01:03:17;2.63;;;1.95;;
59659;SDS011;45534;52.690;6.268;2022-07-29T01:05:43;2.85;;;2.33;;
59659;SDS011;45534;52.690;6.268;2022-07-29T01:08:11;1.63;;;1.52;;
59659;SDS011;45534;52.690;6.268;2022-07-29T01:10:40;1.60;;;1.50;;
59659;SDS011;45534;52.690;6.268;2022-07-29T01:13:07;3.17;;;1.73;;
59659;SDS011;45534;52.690;6.268;2022-07-29T01:15:34;3.30;;;2.00;;
59659;SDS011;45534;52.690;6.268;2022-07-29T01:34:41;1.55;;;1.45;;
59659;SDS011;45534;52.690;6.268;2022-07-29T01:37:39;4.10;;;3.10;;
59659;SDS011;45534;52.690;6.268;2022-07-29T01:40:24;1.55;;;1.45;;
59659;SDS011;45534;52.690;6.268;2022-07-29T01:42:57;1.98;;;1.60;;
59659;SDS011;45534;52.690;6.268;2022-07-29T01:45:44;5.80;;;1.83;;
59659;SDS011;45534;52.690;6.268;2022-07-29T01:48:16;4.35;;;1.92;;
59659;SDS011;45534;52.690;6.268;2022-07-29T01:50:47;3.58;;;2.25;;
59659;SDS011;45534;52.690;6.268;2022-07-29T01:53:27;4.32;;;1.55;;
59659;SDS011;45534;52.690;6.268;2022-07-29T01:56:04;2.58;;;2.38;;
59659;SDS011;45534;52.690;6.268;2022-07-29T01:58:31;4.07;;;1.67;;
59659;SDS011;45534;52.690;6.268;2022-07-29T02:01:00;1.20;;;1.10;;
59659;SDS011;45534;52.690;6.268;2022-07-29T02:03:27;1.42;;;1.33;;
59659;SDS011;45534;52.690;6.268;2022-07-29T02:05:55;1.83;;;1.70;;
59659;SDS011;45534;52.690;6.268;2022-07-29T02:08:22;2.38;;;2.17;;
59659;SDS011;45534;52.690;6.268;2022-07-29T02:10:50;2.92;;;2.33;;
59659;SDS011;45534;52.690;6.268;2022-07-29T02:13:17;4.30;;;2.22;;
59659;SDS011;45534;52.690;6.268;2022-07-29T02:15:46;7.00;;;2.35;;
59659;SDS011;45534;52.690;6.268;2022-07-29T02:18:17;1.73;;;1.63;;
59659;SDS011;45534;52.690;6.268;2022-07-29T02:20:46;2.28;;;2.08;;
59659;SDS011;45534;52.690;6.268;2022-07-29T02:23:14;2.83;;;2.35;;
59659;SDS011;45534;52.690;6.268;2022-07-29T02:25:46;2.80;;;2.25;;
59659;SDS011;45534;52.690;6.268;2022-07-29T02:28:14;6.28;;;2.20;;
59659;SDS011;45534;52.690;6.268;2022-07-29T02:30:41;3.33;;;3.03;;
59659;SDS011;45534;52.690;6.268;2022-07-29T02:33:08;3.95;;;1.50;;
59659;SDS011;45534;52.690;6.268;2022-07-29T02:35:37;3.08;;;2.15;;
59659;SDS011;45534;52.690;6.268;2022-07-29T02:38:05;1.83;;;1.73;;
59659;SDS011;45534;52.690;6.268;2022-07-29T02:40:49;6.63;;;3.08;;
59659;SDS011;45534;52.690;6.268;2022-07-29T02:43:16;4.72;;;2.20;;
59659;SDS011;45534;52.690;6.268;2022-07-29T02:45:44;7.90;;;2.00;;
59659;SDS011;45534;52.690;6.268;2022-07-29T02:48:13;1.35;;;1.25;;
59659;SDS011;45534;52.690;6.268;2022-07-29T02:50:47;1.80;;;1.70;;
59659;SDS011;45534;52.690;6.268;2022-07-29T02:53:20;2.30;;;2.03;;
59659;SDS011;45534;52.690;6.268;2022-07-29T02:55:51;5.38;;;1.75;;
59659;SDS011;45534;52.690;6.268;2022-07-29T02:58:24;2.45;;;2.25;;
59659;SDS011;45534;52.690;6.268;2022-07-29T03:03:21;2.05;;;1.90;;
59659;SDS011;45534;52.690;6.268;2022-07-29T03:05:47;1.40;;;1.40;;
59659;SDS011;45534;52.690;6.268;2022-07-29T03:08:13;3.30;;;2.00;;
59659;SDS011;45534;52.690;6.268;2022-07-29T03:10:42;1.40;;;1.15;;
59659;SDS011;45534;52.690;6.268;2022-07-29T03:13:10;1.42;;;1.30;;
59659;SDS011;45534;52.690;6.268;2022-07-29T03:15:38;6.00;;;2.58;;
59659;SDS011;45534;52.690;6.268;2022-07-29T03:18:05;1.50;;;1.42;;
59659;SDS011;45534;52.690;6.268;2022-07-29T03:20:31;3.15;;;2.45;;
59659;SDS011;45534;52.690;6.268;2022-07-29T03:22:57;1.67;;;1.38;;
59659;SDS011;45534;52.690;6.268;2022-07-29T03:25:23;1.70;;;1.60;;
59659;SDS011;45534;52.690;6.268;2022-07-29T03:27:49;3.90;;;2.22;;
59659;SDS011;45534;52.690;6.268;2022-07-29T03:30:14;4.85;;;2.15;;
59659;SDS011;45534;52.690;6.268;2022-07-29T03:32:43;3.90;;;2.22;;
59659;SDS011;45534;52.690;6.268;2022-07-29T03:35:09;2.88;;;2.45;;
59659;SDS011;45534;52.690;6.268;2022-07-29T03:37:35;3.00;;;1.73;;
59659;SDS011;45534;52.690;6.268;2022-07-29T03:40:02;2.05;;;1.67;;
59659;SDS011;45534;52.690;6.268;2022-07-29T03:42:30;1.33;;;1.23;;
59659;SDS011;45534;52.690;6.268;2022-07-29T03:44:59;2.92;;;1.80;;
59659;SDS011;45534;52.690;6.268;2022-07-29T03:47:30;4.70;;;2.47;;
59659;SDS011;45534;52.690;6.268;2022-07-29T03:50:05;4.53;;;1.25;;
59659;SDS011;45534;52.690;6.268;2022-07-29T03:52:31;3.88;;;2.63;;
59659;SDS011;45534;52.690;6.268;2022-07-29T03:54:58;2.38;;;2.17;;
59659;SDS011;45534;52.690;6.268;2022-07-29T03:57:24;2.47;;;2.22;;
59659;SDS011;45534;52.690;6.268;2022-07-29T03:59:53;30.00;;;3.22;;
59659;SDS011;45534;52.690;6.268;2022-07-29T04:02:20;3.38;;;2.13;;
59659;SDS011;45534;52.690;6.268;2022-07-29T04:04:46;1.65;;;1.55;;
59659;SDS011;45534;52.690;6.268;2022-07-29T04:07:12;8.00;;;3.15;;
59659;SDS011;45534;52.690;6.268;2022-07-29T04:09:39;1.00;;;1.00;;
59659;SDS011;45534;52.690;6.268;2022-07-29T04:12:05;2.15;;;1.48;;
59659;SDS011;45534;52.690;6.268;2022-07-29T04:14:32;3.20;;;1.85;;
59659;SDS011;45534;52.690;6.268;2022-07-29T04:16:58;4.25;;;2.97;;
59659;SDS011;45534;52.690;6.268;2022-07-29T04:19:24;4.63;;;2.15;;
59659;SDS011;45534;52.690;6.268;2022-07-29T04:21:50;1.17;;;1.17;;
59659;SDS011;45534;52.690;6.268;2022-07-29T04:24:16;1.58;;;1.48;;
59659;SDS011;45534;52.690;6.268;2022-07-29T04:26:42;3.17;;;2.85;;
59659;SDS011;45534;52.690;6.268;2022-07-29T04:29:07;2.45;;;1.92;;
59659;SDS011;45534;52.690;6.268;2022-07-29T04:31:33;1.13;;;1.13;;
59659;SDS011;45534;52.690;6.268;2022-07-29T04:33:59;9.27;;;4.70;;
59659;SDS011;45534;52.690;6.268;2022-07-29T04:36:24;1.77;;;1.67;;
59659;SDS011;45534;52.690;6.268;2022-07-29T04:38:50;3.95;;;2.20;;
59659;SDS011;45534;52.690;6.268;2022-07-29T04:41:16;9.13;;;1.80;;
59659;SDS011;45534;52.690;6.268;2022-07-29T04:43:41;4.40;;;2.30;;
59659;SDS011;45534;52.690;6.268;2022-07-29T04:46:07;4.20;;;1.85;;
59659;SDS011;45534;52.690;6.268;2022-07-29T04:48:33;3.50;;;2.08;;
59659;SDS011;45534;52.690;6.268;2022-07-29T04:50:59;4.78;;;2.03;;
59659;SDS011;45534;52.690;6.268;2022-07-29T04:53:24;2.42;;;2.22;;
59659;SDS011;45534;52.690;6.268;2022-07-29T04:55:50;1.88;;;1.77;;
59659;SDS011;45534;52.690;6.268;2022-07-29T04:58:16;4.50;;;2.90;;
59659;SDS011;45534;52.690;6.268;2022-07-29T05:00:42;5.35;;;2.30;;
59659;SDS011;45534;52.690;6.268;2022-07-29T05:03:08;10.63;;;4.15;;
59659;SDS011;45534;52.690;6.268;2022-07-29T05:05:34;3.65;;;1.98;;
59659;SDS011;45534;52.690;6.268;2022-07-29T05:07:59;2.38;;;1.95;;
59659;SDS011;45534;52.690;6.268;2022-07-29T05:10:25;2.80;;;2.60;;
59659;SDS011;45534;52.690;6.268;2022-07-29T05:12:51;1.67;;;1.58;;
59659;SDS011;45534;52.690;6.268;2022-07-29T05:15:17;1.80;;;1.70;;
59659;SDS011;45534;52.690;6.268;2022-07-29T05:17:43;1.90;;;1.77;;
59659;SDS011;45534;52.690;6.268;2022-07-29T05:20:09;4.18;;;2.88;;
59659;SDS011;45534;52.690;6.268;2022-07-29T05:22:35;2.22;;;1.67;;
59659;SDS011;45534;52.690;6.268;2022-07-29T05:25:01;2.38;;;2.13;;
59659;SDS011;45534;52.690;6.268;2022-07-29T05:27:27;3.20;;;1.58;;
59659;SDS011;45534;52.690;6.268;2022-07-29T05:29:53;6.63;;;1.80;;
59659;SDS011;45534;52.690;6.268;2022-07-29T05:32:19;3.55;;;1.90;;
59659;SDS011;45534;52.690;6.268;2022-07-29T05:34:44;2.28;;;2.08;;
59659;SDS011;45534;52.690;6.268;2022-07-29T05:37:10;2.15;;;1.65;;
59659;SDS011;45534;52.690;6.268;2022-07-29T05:39:38;1.60;;;1.50;;
59659;SDS011;45534;52.690;6.268;2022-07-29T05:42:07;5.90;;;2.97;;
59659;SDS011;45534;52.690;6.268;2022-07-29T05:44:37;2.03;;;1.63;;
59659;SDS011;45534;52.690;6.268;2022-07-29T05:47:04;3.03;;;2.25;;
59659;SDS011;45534;52.690;6.268;2022-07-29T05:49:30;5.65;;;1.92;;
59659;SDS011;45534;52.690;6.268;2022-07-29T05:51:56;2.00;;;1.80;;
59659;SDS011;45534;52.690;6.268;2022-07-29T05:54:21;2.60;;;2.28;;
59659;SDS011;45534;52.690;6.268;2022-07-29T05:56:47;3.58;;;2.67;;
59659;SDS011;45534;52.690;6.268;2022-07-29T05:59:13;2.13;;;1.73;;
59659;SDS011;45534;52.690;6.268;2022-07-29T06:01:38;7.28;;;2.22;;
59659;SDS011;45534;52.690;6.268;2022-07-29T06:04:05;1.30;;;1.30;;
59659;SDS011;45534;52.690;6.268;2022-07-29T06:06:31;5.80;;;2.50;;
59659;SDS011;45534;52.690;6.268;2022-07-29T06:08:58;6.47;;;3.83;;
59659;SDS011;45534;52.690;6.268;2022-07-29T06:11:24;2.05;;;1.95;;
59659;SDS011;45534;52.690;6.268;2022-07-29T06:13:50;4.65;;;1.85;;
59659;SDS011;45534;52.690;6.268;2022-07-29T06:16:16;5.07;;;2.80;;
59659;SDS011;45534;52.690;6.268;2022-07-29T06:18:41;9.43;;;8.68;;
59659;SDS011;45534;52.690;6.268;2022-07-29T06:21:08;2.17;;;1.75;;
59659;SDS011;45534;52.690;6.268;2022-07-29T06:23:37;5.35;;;2.63;;
59659;SDS011;45534;52.690;6.268;2022-07-29T06:26:03;1.75;;;1.65;;
59659;SDS011;45534;52.690;6.268;2022-07-29T06:28:30;6.00;;;1.95;;
59659;SDS011;45534;52.690;6.268;2022-07-29T06:30:56;7.43;;;1.77;;
59659;SDS011;45534;52.690;6.268;2022-07-29T06:33:21;2.72;;;2.33;;
59659;SDS011;45534;52.690;6.268;2022-07-29T06:35:47;2.67;;;2.45;;
59659;SDS011;45534;52.690;6.268;2022-07-29T06:38:14;1.95;;;1.85;;
59659;SDS011;45534;52.690;6.268;2022-07-29T06:40:43;6.70;;;2.20;;
59659;SDS011;45534;52.690;6.268;2022-07-29T06:43:35;2.63;;;2.42;;
59659;SDS011;45534;52.690;6.268;2022-07-29T06:46:06;6.25;;;2.33;;
59659;SDS011;45534;52.690;6.268;2022-07-29T06:48:33;7.18;;;1.88;;
59659;SDS011;45534;52.690;6.268;2022-07-29T06:51:01;6.70;;;3.90;;
59659;SDS011;45534;52.690;6.268;2022-07-29T06:53:28;4.65;;;1.95;;
59659;SDS011;45534;52.690;6.268;2022-07-29T06:55:54;2.88;;;2.08;;
59659;SDS011;45534;52.690;6.268;2022-07-29T06:58:20;2.30;;;1.92;;
59659;SDS011;45534;52.690;6.268;2022-07-29T07:00:46;2.42;;;1.85;;
59659;SDS011;45534;52.690;6.268;2022-07-29T07:03:13;5.70;;;2.33;;
59659;SDS011;45534;52.690;6.268;2022-07-29T07:05:39;2.92;;;2.63;;
59659;SDS011;45534;52.690;6.268;2022-07-29T07:08:05;2.42;;;2.05;;
59659;SDS011;45534;52.690;6.268;2022-07-29T07:10:32;3.10;;;1.85;;
59659;SDS011;45534;52.690;6.268;2022-07-29T07:12:58;10.70;;;4.38;;
59659;SDS011;45534;52.690;6.268;2022-07-29T07:15:24;8.73;;;2.80;;
59659;SDS011;45534;52.690;6.268;2022-07-29T07:17:49;2.30;;;1.95;;
59659;SDS011;45534;52.690;6.268;2022-07-29T07:20:15;2.72;;;1.90;;
59659;SDS011;45534;52.690;6.268;2022-07-29T07:22:42;3.05;;;2.22;;
59659;SDS011;45534;52.690;6.268;2022-07-29T07:25:08;5.70;;;2.42;;
59659;SDS011;45534;52.690;6.268;2022-07-29T07:27:35;5.60;;;1.55;;
59659;SDS011;45534;52.690;6.268;2022-07-29T07:30:02;15.95;;;2.22;;
59659;SDS011;45534;52.690;6.268;2022-07-29T07:32:30;2.38;;;2.10;;
59659;SDS011;45534;52.690;6.268;2022-07-29T07:34:56;6.10;;;3.90;;
59659;SDS011;45534;52.690;6.268;2022-07-29T07:37:23;2.38;;;2.17;;
59659;SDS011;45534;52.690;6.268;2022-07-29T07:39:50;5.15;;;2.38;;
59659;SDS011;45534;52.690;6.268;2022-07-29T07:42:16;2.53;;;1.92;;
59659;SDS011;45534;52.690;6.268;2022-07-29T07:44:42;3.47;;;1.80;;
59659;SDS011;45534;52.690;6.268;2022-07-29T07:47:08;3.33;;;2.95;;
59659;SDS011;45534;52.690;6.268;2022-07-29T07:49:34;10.27;;;2.55;;
59659;SDS011;45534;52.690;6.268;2022-07-29T07:51:59;4.43;;;2.88;;
59659;SDS011;45534;52.690;6.268;2022-07-29T07:54:25;1.58;;;1.33;;
59659;SDS011;45534;52.690;6.268;2022-07-29T07:56:51;3.05;;;2.38;;
59659;SDS011;45534;52.690;6.268;2022-07-29T07:59:17;1.48;;;1.38;;
59659;SDS011;45534;52.690;6.268;2022-07-29T08:01:42;3.28;;;2.55;;
59659;SDS011;45534;52.690;6.268;2022-07-29T08:04:08;5.00;;;2.65;;
59659;SDS011;45534;52.690;6.268;2022-07-29T08:06:34;1.83;;;1.73;;
59659;SDS011;45534;52.690;6.268;2022-07-29T08:09:02;5.68;;;2.20;;
59659;SDS011;45534;52.690;6.268;2022-07-29T08:11:29;7.93;;;2.92;;
59659;SDS011;45534;52.690;6.268;2022-07-29T08:13:55;2.67;;;2.20;;
59659;SDS011;45534;52.690;6.268;2022-07-29T08:16:21;2.47;;;2.05;;
59659;SDS011;45534;52.690;6.268;2022-07-29T08:18:47;8.93;;;4.63;;
59659;SDS011;45534;52.690;6.268;2022-07-29T08:21:15;1.90;;;1.75;;
59659;SDS011;45534;52.690;6.268;2022-07-29T08:23:43;6.60;;;2.28;;
59659;SDS011;45534;52.690;6.268;2022-07-29T08:26:15;4.38;;;2.42;;
59659;SDS011;45534;52.690;6.268;2022-07-29T08:28:42;2.53;;;1.95;;
59659;SDS011;45534;52.690;6.268;2022-07-29T08:31:14;3.22;;;2.50;;
59659;SDS011;45534;52.690;6.268;2022-07-29T08:33:41;4.32;;;2.53;;
59659;SDS011;45534;52.690;6.268;2022-07-29T08:36:07;5.65;;;3.10;;
59659;SDS011;45534;52.690;6.268;2022-07-29T08:38:33;1.42;;;1.35;;
59659;SDS011;45534;52.690;6.268;2022-07-29T08:41:02;1.92;;;1.80;;
59659;SDS011;45534;52.690;6.268;2022-07-29T08:43:28;5.25;;;2.47;;
59659;SDS011;45534;52.690;6.268;2022-07-29T08:45:54;10.95;;;5.53;;
59659;SDS011;45534;52.690;6.268;2022-07-29T08:48:23;12.35;;;2.88;;
59659;SDS011;45534;52.690;6.268;2022-07-29T08:50:50;2.10;;;1.40;;
59659;SDS011;45534;52.690;6.268;2022-07-29T08:53:18;4.50;;;2.65;;
59659;SDS011;45534;52.690;6.268;2022-07-29T08:55:46;3.17;;;2.33;;
59659;SDS011;45534;52.690;6.268;2022-07-29T08:58:14;2.15;;;1.98;;
59659;SDS011;45534;52.690;6.268;2022-07-29T09:00:42;4.55;;;3.00;;
59659;SDS011;45534;52.690;6.268;2022-07-29T09:03:15;3.33;;;2.90;;
59659;SDS011;45534;52.690;6.268;2022-07-29T09:05:47;2.22;;;2.03;;
59659;SDS011;45534;52.690;6.268;2022-07-29T09:08:14;2.67;;;2.40;;
59659;SDS011;45534;52.690;6.268;2022-07-29T09:10:41;7.05;;;3.22;;
59659;SDS011;45534;52.690;6.268;2022-07-29T09:13:07;3.80;;;2.83;;
59659;SDS011;45534;52.690;6.268;2022-07-29T09:15:33;1.98;;;1.85;;
59659;SDS011;45534;52.690;6.268;2022-07-29T09:17:59;3.83;;;2.40;;
59659;SDS011;45534;52.690;6.268;2022-07-29T09:20:25;7.28;;;4.25;;
59659;SDS011;45534;52.690;6.268;2022-07-29T09:23:11;2.08;;;1.90;;
59659;SDS011;45534;52.690;6.268;2022-07-29T09:25:38;4.40;;;3.13;;
59659;SDS011;45534;52.690;6.268;2022-07-29T09:28:15;4.50;;;2.78;;
59659;SDS011;45534;52.690;6.268;2022-07-29T09:30:54;7.57;;;2.35;;
59659;SDS011;45534;52.690;6.268;2022-07-29T09:33:23;14.60;;;4.90;;
59659;SDS011;45534;52.690;6.268;2022-07-29T09:36:06;9.13;;;3.90;;
59659;SDS011;45534;52.690;6.268;2022-07-29T09:38:33;5.13;;;3.25;;
59659;SDS011;45534;52.690;6.268;2022-07-29T09:41:00;5.10;;;2.72;;
59659;SDS011;45534;52.690;6.268;2022-07-29T09:43:27;3.95;;;2.53;;
59659;SDS011;45534;52.690;6.268;2022-07-29T09:45:54;6.85;;;2.38;;
59659;SDS011;45534;52.690;6.268;2022-07-29T09:48:23;9.00;;;4.30;;
59659;SDS011;45534;52.690;6.268;2022-07-29T09:50:50;11.38;;;5.03;;
59659;SDS011;45534;52.690;6.268;2022-07-29T09:53:32;12.85;;;5.57;;
59659;SDS011;45534;52.690;6.268;2022-07-29T09:56:00;7.93;;;4.30;;
59659;SDS011;45534;52.690;6.268;2022-07-29T09:58:26;6.40;;;4.57;;
59659;SDS011;45534;52.690;6.268;2022-07-29T10:00:52;7.45;;;4.57;;
59659;SDS011;45534;52.690;6.268;2022-07-29T10:03:19;6.20;;;3.88;;
59659;SDS011;45534;52.690;6.268;2022-07-29T10:05:46;6.53;;;3.33;;
59659;SDS011;45534;52.690;6.268;2022-07-29T10:08:28;8.73;;;4.05;;
59659;SDS011;45534;52.690;6.268;2022-07-29T10:11:02;5.13;;;3.30;;
59659;SDS011;45534;52.690;6.268;2022-07-29T10:13:37;2.97;;;2.25;;
59659;SDS011;45534;52.690;6.268;2022-07-29T10:16:04;11.07;;;5.05;;
59659;SDS011;45534;52.690;6.268;2022-07-29T10:18:30;6.43;;;4.70;;
59659;SDS011;45534;52.690;6.268;2022-07-29T10:20:58;9.30;;;4.35;;
59659;SDS011;45534;52.690;6.268;2022-07-29T10:23:26;5.50;;;3.78;;
59659;SDS011;45534;52.690;6.268;2022-07-29T10:25:53;1.85;;;1.75;;
59659;SDS011;45534;52.690;6.268;2022-07-29T10:28:19;12.05;;;4.32;;
59659;SDS011;45534;52.690;6.268;2022-07-29T10:30:45;9.20;;;4.22;;
59659;SDS011;45534;52.690;6.268;2022-07-29T10:33:21;8.02;;;4.32;;
59659;SDS011;45534;52.690;6.268;2022-07-29T10:42:02;7.40;;;4.90;;
59659;SDS011;45534;52.690;6.268;2022-07-29T10:44:42;16.20;;;5.65;;
59659;SDS011;45534;52.690;6.268;2022-07-29T10:47:16;6.45;;;3.92;;
59659;SDS011;45534;52.690;6.268;2022-07-29T10:49:56;8.93;;;4.78;;
59659;SDS011;45534;52.690;6.268;2022-07-29T10:55:37;13.63;;;4.20;;
59659;SDS011;45534;52.690;6.268;2022-07-29T10:58:20;10.73;;;5.65;;
59659;SDS011;45534;52.690;6.268;2022-07-29T11:00:51;11.15;;;5.68;;
59659;SDS011;45534;52.690;6.268;2022-07-29T11:06:05;6.60;;;3.97;;
59659;SDS011;45534;52.690;6.268;2022-07-29T11:08:31;11.13;;;6.03;;
59659;SDS011;45534;52.690;6.268;2022-07-29T11:16:15;6.28;;;4.53;;
59659;SDS011;45534;52.690;6.268;2022-07-29T11:21:42;6.65;;;4.20;;
59659;SDS011;45534;52.690;6.268;2022-07-29T11:24:45;6.93;;;4.20;;
59659;SDS011;45534;52.690;6.268;2022-07-29T11:27:19;6.57;;;4.55;;
59659;SDS011;45534;52.690;6.268;2022-07-29T11:32:14;10.30;;;3.85;;
59659;SDS011;45534;52.690;6.268;2022-07-29T11:34:43;8.52;;;4.20;;
59659;SDS011;45534;52.690;6.268;2022-07-29T11:39:37;5.38;;;3.53;;
59659;SDS011;45534;52.690;6.268;2022-07-29T11:47:38;9.43;;;4.63;;
59659;SDS011;45534;52.690;6.268;2022-07-29T11:50:14;11.43;;;5.15;;
59659;SDS011;45534;52.690;6.268;2022-07-29T11:52:46;11.75;;;5.43;;
59659;SDS011;45534;52.690;6.268;2022-07-29T11:55:16;7.20;;;5.10;;
59659;SDS011;45534;52.690;6.268;2022-07-29T11:57:50;7.00;;;4.32;;
59659;SDS011;45534;52.690;6.268;2022-07-29T12:00:40;6.72;;;3.80;;
59659;SDS011;45534;52.690;6.268;2022-07-29T12:03:10;10.57;;;4.20;;
59659;SDS011;45534;52.690;6.268;2022-07-29T12:05:40;7.97;;;3.55;;
59659;SDS011;45534;52.690;6.268;2022-07-29T12:08:08;12.48;;;5.68;;
59659;SDS011;45534;52.690;6.268;2022-07-29T12:10:44;6.40;;;3.75;;
59659;SDS011;45534;52.690;6.268;2022-07-29T12:13:12;6.28;;;4.25;;
59659;SDS011;45534;52.690;6.268;2022-07-29T12:15:38;13.00;;;5.38;;
59659;SDS011;45534;52.690;6.268;2022-07-29T12:18:15;19.13;;;4.60;;
59659;SDS011;45534;52.690;6.268;2022-07-29T12:20:45;13.00;;;4.45;;
59659;SDS011;45534;52.690;6.268;2022-07-29T12:23:12;7.90;;;3.85;;
59659;SDS011;45534;52.690;6.268;2022-07-29T12:25:39;16.60;;;6.13;;
59659;SDS011;45534;52.690;6.268;2022-07-29T12:28:07;8.82;;;4.20;;
59659;SDS011;45534;52.690;6.268;2022-07-29T12:30:35;9.13;;;4.38;;
59659;SDS011;45534;52.690;6.268;2022-07-29T12:33:18;9.95;;;5.15;;
59659;SDS011;45534;52.690;6.268;2022-07-29T12:35:54;10.88;;;5.28;;
59659;SDS011;45534;52.690;6.268;2022-07-29T12:38:21;11.88;;;6.22;;
59659;SDS011;45534;52.690;6.268;2022-07-29T12:40:48;16.88;;;5.30;;
59659;SDS011;45534;52.690;6.268;2022-07-29T12:43:19;6.72;;;4.13;;
59659;SDS011;45534;52.690;6.268;2022-07-29T12:45:47;11.70;;;4.93;;
59659;SDS011;45534;52.690;6.268;2022-07-29T12:48:39;8.93;;;4.90;;
59659;SDS011;45534;52.690;6.268;2022-07-29T12:51:06;18.13;;;4.95;;
59659;SDS011;45534;52.690;6.268;2022-07-29T12:53:34;9.57;;;5.55;;
59659;SDS011;45534;52.690;6.268;2022-07-29T12:56:00;9.07;;;4.13;;
59659;SDS011;45534;52.690;6.268;2022-07-29T13:01:01;9.68;;;5.28;;
59659;SDS011;45534;52.690;6.268;2022-07-29T13:03:29;5.82;;;4.45;;
59659;SDS011;45534;52.690;6.268;2022-07-29T13:09:03;11.70;;;5.40;;
59659;SDS011;45534;52.690;6.268;2022-07-29T13:14:10;12.02;;;5.95;;
59659;SDS011;45534;52.690;6.268;2022-07-29T13:17:06;10.95;;;3.50;;
59659;SDS011;45534;52.690;6.268;2022-07-29T13:19:49;7.22;;;4.20;;
59659;SDS011;45534;52.690;6.268;2022-07-29T13:22:17;13.80;;;4.40;;
59659;SDS011;45534;52.690;6.268;2022-07-29T13:24:54;7.28;;;5.00;;
59659;SDS011;45534;52.690;6.268;2022-07-29T13:27:25;8.98;;;3.97;;
59659;SDS011;45534;52.690;6.268;2022-07-29T13:29:54;8.23;;;4.13;;
59659;SDS011;45534;52.690;6.268;2022-07-29T13:32:24;10.30;;;4.53;;
59659;SDS011;45534;52.690;6.268;2022-07-29T13:34:52;10.07;;;4.53;;
59659;SDS011;45534;52.690;6.268;2022-07-29T13:37:18;9.38;;;4.70;;
59659;SDS011;45534;52.690;6.268;2022-07-29T13:39:45;6.20;;;4.85;;
59659;SDS011;45534;52.690;6.268;2022-07-29T13:42:10;8.15;;;5.05;;
59659;SDS011;45534;52.690;6.268;2022-07-29T13:44:39;12.20;;;5.20;;
59659;SDS011;45534;52.690;6.268;2022-07-29T13:47:08;8.40;;;4.55;;
59659;SDS011;45534;52.690;6.268;2022-07-29T13:49:34;6.95;;;4.70;;
59659;SDS011;45534;52.690;6.268;2022-07-29T13:52:00;7.43;;;4.88;;
59659;SDS011;45534;52.690;6.268;2022-07-29T13:54:26;8.75;;;4.93;;
59659;SDS011;45534;52.690;6.268;2022-07-29T13:56:52;8.02;;;4.47;;
59659;SDS011;45534;52.690;6.268;2022-07-29T13:59:18;6.88;;;4.82;;
59659;SDS011;45534;52.690;6.268;2022-07-29T14:01:44;6.80;;;4.75;;
59659;SDS011;45534;52.690;6.268;2022-07-29T14:04:10;4.72;;;3.75;;
59659;SDS011;45534;52.690;6.268;2022-07-29T14:06:36;16.55;;;3.92;;
59659;SDS011;45534;52.690;6.268;2022-07-29T14:09:02;6.05;;;3.97;;
59659;SDS011;45534;52.690;6.268;2022-07-29T14:11:33;6.03;;;4.35;;
59659;SDS011;45534;52.690;6.268;2022-07-29T14:13:59;6.35;;;3.72;;
59659;SDS011;45534;52.690;6.268;2022-07-29T14:16:25;8.38;;;3.50;;
59659;SDS011;45534;52.690;6.268;2022-07-29T14:18:51;8.13;;;3.90;;
59659;SDS011;45534;52.690;6.268;2022-07-29T14:21:17;3.15;;;2.22;;
59659;SDS011;45534;52.690;6.268;2022-07-29T14:23:43;7.68;;;3.53;;
59659;SDS011;45534;52.690;6.268;2022-07-29T14:26:09;10.15;;;3.85;;
59659;SDS011;45534;52.690;6.268;2022-07-29T14:28:35;5.85;;;3.50;;
59659;SDS011;45534;52.690;6.268;2022-07-29T14:31:00;8.85;;;3.90;;
59659;SDS011;45534;52.690;6.268;2022-07-29T14:33:26;9.20;;;3.83;;
59659;SDS011;45534;52.690;6.268;2022-07-29T14:35:52;6.45;;;3.28;;
59659;SDS011;45534;52.690;6.268;2022-07-29T14:38:18;7.75;;;2.67;;
59659;SDS011;45534;52.690;6.268;2022-07-29T14:40:43;6.18;;;2.90;;
59659;SDS011;45534;52.690;6.268;2022-07-29T14:43:10;4.88;;;3.15;;
59659;SDS011;45534;52.690;6.268;2022-07-29T14:45:35;7.57;;;2.75;;
59659;SDS011;45534;52.690;6.268;2022-07-29T14:48:01;14.38;;;3.47;;
59659;SDS011;45534;52.690;6.268;2022-07-29T14:50:27;5.13;;;3.15;;
59659;SDS011;45534;52.690;6.268;2022-07-29T14:52:52;12.60;;;4.20;;
59659;SDS011;45534;52.690;6.268;2022-07-29T14:55:19;5.30;;;3.20;;
59659;SDS011;45534;52.690;6.268;2022-07-29T14:57:44;4.63;;;2.13;;
59659;SDS011;45534;52.690;6.268;2022-07-29T15:00:10;9.85;;;3.20;;
59659;SDS011;45534;52.690;6.268;2022-07-29T15:02:36;10.55;;;3.22;;
59659;SDS011;45534;52.690;6.268;2022-07-29T15:05:02;6.45;;;3.03;;
59659;SDS011;45534;52.690;6.268;2022-07-29T15:07:28;6.65;;;3.33;;
59659;SDS011;45534;52.690;6.268;2022-07-29T15:09:54;13.57;;;4.03;;
59659;SDS011;45534;52.690;6.268;2022-07-29T15:12:20;7.18;;;3.05;;
59659;SDS011;45534;52.690;6.268;2022-07-29T15:14:45;7.00;;;3.65;;
59659;SDS011;45534;52.690;6.268;2022-07-29T15:17:11;5.93;;;3.13;;
59659;SDS011;45534;52.690;6.268;2022-07-29T15:19:37;6.50;;;3.15;;
59659;SDS011;45534;52.690;6.268;2022-07-29T15:22:02;5.15;;;3.22;;
59659;SDS011;45534;52.690;6.268;2022-07-29T15:24:29;4.63;;;2.80;;
59659;SDS011;45534;52.690;6.268;2022-07-29T15:26:55;5.97;;;3.10;;
59659;SDS011;45534;52.690;6.268;2022-07-29T15:29:21;5.15;;;2.88;;
59659;SDS011;45534;52.690;6.268;2022-07-29T15:31:47;8.05;;;2.97;;
59659;SDS011;45534;52.690;6.268;2022-07-29T15:34:16;3.75;;;2.35;;
59659;SDS011;45534;52.690;6.268;2022-07-29T15:36:41;3.78;;;2.67;;
59659;SDS011;45534;52.690;6.268;2022-07-29T15:39:07;9.98;;;3.88;;
59659;SDS011;45534;52.690;6.268;2022-07-29T15:41:34;10.93;;;3.15;;
59659;SDS011;45534;52.690;6.268;2022-07-29T15:43:59;6.78;;;2.80;;
59659;SDS011;45534;52.690;6.268;2022-07-29T15:46:25;7.47;;;2.95;;
59659;SDS011;45534;52.690;6.268;2022-07-29T15:49:09;8.82;;;4.13;;
59659;SDS011;45534;52.690;6.268;2022-07-29T15:51:35;4.60;;;3.03;;